Time;durP1;ratioP1;P1;durP2;ratioP2;P2;SDS_P1;SDS_P2;PMS_P1;PMS_P2;Temp;Humidity;BMP_temperature;BMP_pressure;BME280_temperature;BME280_humidity;BME280_pressure;Samples;Min_cycle;Max_cycle;Signal;HPM_P1;HPM_P2
2023/02/10 00:00:39;;;;;;;;;;;;;;;;;;5116079;28;20395;-59
2023/02/10 00:03:05;;;;;;;;;;;;;;;;;;5116190;28;19912;-60
2023/02/10 00:05:32;;;;;;;;;;;;;;;;;;5115553;28;19912;-59
2023/02/10 00:07:57;;;;;;;;;;;;;;;;;;5115895;28;19919;-59
2023/02/10 00:10:23;;;;;;;;;;;;;;;;;;5117391;27;20296;-59
2023/02/10 00:12:49;;;;;;;;;;;;;;;;;;5115597;28;19923;-60
2023/02/10 00:15:15;;;;;;;;;;;;;;;;;;5114429;28;19915;-59
2023/02/10 00:17:41;;;;;;;;;;;;;;;;;;5115827;28;19920;-59
2023/02/10 00:20:07;;;;;;;;;;;;;;;;;;5115579;28;19919;-60
2023/02/10 00:22:33;;;;;;;;;;;;;;;;;;5115763;27;19912;-60
2023/02/10 00:24:59;;;;;;;;;;;;;;;;;;5115215;28;19979;-59
2023/02/10 00:27:25;;;;;;;;;;;;;;;;;;5115804;28;19911;-60
2023/02/10 00:29:51;;;;;;;;;;;;;;;;;;5135440;27;20272;-60
2023/02/10 00:32:17;;;;;;;;;;;;;;;;;;5135740;27;19911;-59
2023/02/10 00:34:43;;;;;;;;;;;;;;;;;;5135378;27;19919;-60
2023/02/10 00:37:09;;;;;;;;;;;;;;;;;;5135619;27;20364;-57
2023/02/10 00:39:35;;;;;;;;;;;;;;;;;;5135835;27;19912;-60
2023/02/10 00:42:01;;;;;;;;;;;;;;;;;;5134193;27;19915;-60
2023/02/10 00:44:27;;;;;;;;;;;;;;;;;;5134663;27;19911;-60
2023/02/10 00:46:53;;;;;;;;;;;;;;;;;;5134858;27;19915;-60
2023/02/10 00:49:19;;;;;;;;;;;;;;;;;;5134207;27;19912;-60
2023/02/10 00:51:44;;;;;;;;;;;;;;;;;;5122421;27;19919;-61
2023/02/10 00:54:10;;;;;;;;;;;;;;;;;;5114962;28;19919;-60
2023/02/10 00:56:36;;;;;;;;;;;;;;;;;;5116019;27;19911;-61
2023/02/10 00:59:02;;;;;;;;;;;;;;;;;;5114274;28;19968;-60
2023/02/10 01:01:28;;;;;;;;;;;;;;;;;;5114595;28;19916;-60
2023/02/10 01:03:54;;;;;;;;;;;;;;;;;;5116141;27;19915;-60
2023/02/10 01:06:20;;;;;;;;;;;;;;;;;;5114730;28;19919;-60
2023/02/10 01:08:46;;;;;;;;;;;;;;;;;;5114507;28;19912;-61
2023/02/10 01:11:12;;;;;;;;;;;;;;;;;;5115608;27;20306;-60
2023/02/10 01:13:38;;;;;;;;;;;;;;;;;;5115253;27;20356;-60
2023/02/10 01:16:04;;;;;;;;;;;;;;;;;;5114240;28;19918;-60
2023/02/10 01:18:30;;;;;;;;;;;;;;;;;;5131905;27;19972;-59
2023/02/10 01:20:55;;;;;;;;;;;;;;;;;;5135132;27;19950;-60
2023/02/10 01:23:21;;;;;;;;;;;;;;;;;;5135138;27;19951;-61
2023/02/10 01:25:47;;;;;;;;;;;;;;;;;;5135160;27;20328;-60
2023/02/10 01:28:13;;;;;;;;;;;;;;;;;;5132938;27;19911;-59
2023/02/10 01:30:39;;;;;;;;;;;;;;;;;;5129658;27;19912;-60
2023/02/10 01:33:05;;;;;;;;;;;;;;;;;;5114287;28;19918;-60
2023/02/10 01:35:31;;;;;;;;;;;;;;;;;;5114216;28;19958;-60
2023/02/10 01:37:57;;;;;;;;;;;;;;;;;;5114202;28;19918;-59
2023/02/10 01:40:23;;;;;;;;;;;;;;;;;;5114376;28;19912;-60
2023/02/10 01:42:49;;;;;;;;;;;;;;;;;;5114192;27;20379;-59
2023/02/10 01:45:15;;;;;;;;;;;;;;;;;;5113867;27;19924;-59
2023/02/10 01:47:41;;;;;;;;;;;;;;;;;;5112768;27;20015;-61
2023/02/10 01:50:07;;;;;;;;;;;;;;;;;;5113665;28;19915;-58
2023/02/10 01:52:33;;;;;;;;;;;;;;;;;;5113997;28;19912;-59
2023/02/10 01:54:59;;;;;;;;;;;;;;;;;;5113811;28;19923;-60
2023/02/10 01:57:24;;;;;;;;;;;;;;;;;;5114070;28;20287;-60
2023/02/10 01:59:50;;;;;;;;;;;;;;;;;;5150988;22;19959;-55
2023/02/10 02:02:16;;;;;;;;;;;;;;;;;;5092658;28;19935;-58
2023/02/10 02:04:42;;;;;;;;;;;;;;;;;;5093245;28;19908;-57
2023/02/10 02:07:08;;;;;;;;;;;;;;;;;;5093237;28;19909;-57
2023/02/10 02:09:34;;;;;;;;;;;;;;;;;;5092083;28;19909;-59
2023/02/10 02:12:00;;;;;;;;;;;;;;;;;;5073166;28;19942;-57
2023/02/10 02:14:26;;;;;;;;;;;;;;;;;;5072874;28;20377;-57
2023/02/10 02:16:52;;;;;;;;;;;;;;;;;;5071760;28;19962;-58
2023/02/10 02:19:18;;;;;;;;;;;;;;;;;;5072846;28;20356;-59
2023/02/10 02:21:44;;;;;;;;;;;;;;;;;;5072439;28;20014;-56
2023/02/10 02:24:10;;;;;;;;;;;;;;;;;;5053285;28;19995;-55
2023/02/10 02:26:36;;;;;;;;;;;;;;;;;;5052785;28;19947;-56
2023/02/10 02:29:02;;;;;;;;;;;;;;;;;;5068304;28;20380;-57
2023/02/10 02:31:27;;;;;;;;;;;;;;;;;;5072315;28;20011;-54
2023/02/10 02:33:53;;;;;;;;;;;;;;;;;;5072230;28;20003;-54
2023/02/10 02:36:19;;;;;;;;;;;;;;;;;;5067683;28;20007;-57
2023/02/10 02:38:45;;;;;;;;;;;;;;;;;;5061712;28;20024;-55
2023/02/10 02:41:11;;;;;;;;;;;;;;;;;;5055986;28;20011;-58
2023/02/10 02:43:37;;;;;;;;;;;;;;;;;;5072230;28;20037;-58
2023/02/10 02:46:03;;;;;;;;;;;;;;;;;;5070288;28;19955;-56
2023/02/10 02:48:29;;;;;;;;;;;;;;;;;;5072555;28;19912;-58
2023/02/10 02:50:55;;;;;;;;;;;;;;;;;;5070498;28;19924;-58
2023/02/10 02:53:21;;;;;;;;;;;;;;;;;;5071741;28;20372;-58
2023/02/10 02:55:47;;;;;;;;;;;;;;;;;;5069888;28;19912;-58
2023/02/10 02:58:12;;;;;;;;;;;;;;;;;;5072011;28;19912;-59
2023/02/10 03:00:38;;;;;;;;;;;;;;;;;;5085899;28;20199;-55
2023/02/10 03:03:04;;;;;;;;;;;;;;;;;;5092361;28;19912;-55
2023/02/10 03:05:30;;;;;;;;;;;;;;;;;;5092259;28;20014;-56
2023/02/10 03:07:56;;;;;;;;;;;;;;;;;;5092507;28;19943;-58
2023/02/10 03:10:22;;;;;;;;;;;;;;;;;;5110454;28;20339;-54
2023/02/10 03:12:48;;;;;;;;;;;;;;;;;;5110645;28;19954;-54
2023/02/10 03:15:15;;;;;;;;;;;;;;;;;;5109680;28;19951;-54
2023/02/10 03:17:41;;;;;;;;;;;;;;;;;;5084279;28;19919;-54
2023/02/10 03:20:06;;;;;;;;;;;;;;;;;;5112491;28;19911;-57
2023/02/10 03:22:32;;;;;;;;;;;;;;;;;;5112701;28;19912;-59
2023/02/10 03:24:58;;;;;;;;;;;;;;;;;;5112432;28;19915;-58
2023/02/10 03:27:24;;;;;;;;;;;;;;;;;;5112535;28;19915;-56
2023/02/10 03:29:52;;;;;;;;;;;;;;;;;;5112456;28;19930;-59
2023/02/10 03:32:17;;;;;;;;;;;;;;;;;;5112416;28;19911;-58
2023/02/10 03:34:43;;;;;;;;;;;;;;;;;;5076905;28;19916;-58
2023/02/10 03:37:09;;;;;;;;;;;;;;;;;;5092168;28;19923;-57
2023/02/10 03:39:35;;;;;;;;;;;;;;;;;;5092030;28;19953;-55
2023/02/10 03:42:01;;;;;;;;;;;;;;;;;;5091963;28;19912;-58
2023/02/10 03:44:27;;;;;;;;;;;;;;;;;;5091945;28;19908;-54
2023/02/10 03:46:53;;;;;;;;;;;;;;;;;;5097450;28;20319;-54
2023/02/10 03:49:19;;;;;;;;;;;;;;;;;;5112028;28;19912;-55
2023/02/10 03:51:45;;;;;;;;;;;;;;;;;;5099041;28;20291;-56
2023/02/10 03:54:11;;;;;;;;;;;;;;;;;;5081616;28;19918;-56
2023/02/10 03:56:37;;;;;;;;;;;;;;;;;;5095302;28;19947;-56
2023/02/10 03:59:03;;;;;;;;;;;;;;;;;;5090666;28;19915;-59
2023/02/10 04:01:28;;;;;;;;;;;;;;;;;;5103863;28;19969;-59
2023/02/10 04:03:54;;;;;;;;;;;;;;;;;;5099756;28;19922;-54
2023/02/10 04:06:20;;;;;;;;;;;;;;;;;;5106586;28;20006;-55
2023/02/10 04:08:46;;;;;;;;;;;;;;;;;;5112159;28;19962;-56
2023/02/10 04:11:13;;;;;;;;;;;;;;;;;;5112058;28;19915;-58
2023/02/10 04:13:39;;;;;;;;;;;;;;;;;;5112081;28;19912;-58
2023/02/10 04:16:05;;;;;;;;;;;;;;;;;;5110901;28;19951;-55
2023/02/10 04:18:30;;;;;;;;;;;;;;;;;;5107919;28;19966;-59
2023/02/10 04:20:57;;;;;;;;;;;;;;;;;;5111889;28;19919;-55
2023/02/10 04:23:23;;;;;;;;;;;;;;;;;;5111343;28;19912;-58
2023/02/10 04:25:49;;;;;;;;;;;;;;;;;;5113741;28;20295;-55
2023/02/10 04:28:14;;;;;;;;;;;;;;;;;;5114159;28;19912;-56
2023/02/10 04:30:40;;;;;;;;;;;;;;;;;;5102203;28;19922;-56
2023/02/10 04:33:06;;;;;;;;;;;;;;;;;;5115649;28;19908;-57
2023/02/10 04:35:32;;;;;;;;;;;;;;;;;;5115239;28;19933;-54
2023/02/10 04:38:03;;;;;;;;;;;;;;;;;;5115165;28;20345;-54
2023/02/10 04:40:29;;;;;;;;;;;;;;;;;;5085344;28;19961;-56
2023/02/10 04:42:54;;;;;;;;;;;;;;;;;;5102630;28;20346;-57
2023/02/10 04:45:20;;;;;;;;;;;;;;;;;;5092177;28;20409;-57
2023/02/10 04:47:46;;;;;;;;;;;;;;;;;;5110347;28;20280;-56
2023/02/10 04:50:12;;;;;;;;;;;;;;;;;;5115191;28;19915;-57
2023/02/10 04:52:38;;;;;;;;;;;;;;;;;;5114714;28;19912;-54
2023/02/10 04:55:04;;;;;;;;;;;;;;;;;;5113560;28;19911;-57
2023/02/10 04:57:30;;;;;;;;;;;;;;;;;;5110013;28;19923;-53
2023/02/10 04:59:56;;;;;;;;;;;;;;;;;;5094113;28;20299;-57
2023/02/10 05:02:22;;;;;;;;;;;;;;;;;;5094294;28;19912;-53
2023/02/10 05:04:48;;;;;;;;;;;;;;;;;;5094747;28;19908;-55
2023/02/10 05:07:14;;;;;;;;;;;;;;;;;;5094577;28;20439;-59
2023/02/10 05:09:39;;;;;;;;;;;;;;;;;;5094475;28;20004;-54
2023/02/10 05:12:05;;;;;;;;;;;;;;;;;;5076282;28;19912;-54
2023/02/10 05:14:31;;;;;;;;;;;;;;;;;;5094560;28;19916;-55
2023/02/10 05:16:57;;;;;;;;;;;;;;;;;;5094416;28;19908;-57
2023/02/10 05:19:23;;;;;;;;;;;;;;;;;;5093683;28;19957;-56
2023/02/10 05:21:49;;;;;;;;;;;;;;;;;;5093598;28;19951;-55
2023/02/10 05:24:15;;;;;;;;;;;;;;;;;;5094257;28;19908;-53
2023/02/10 05:26:41;;;;;;;;;;;;;;;;;;5094009;28;20287;-54
2023/02/10 05:29:07;;;;;;;;;;;;;;;;;;5094224;28;20373;-57
2023/02/10 05:31:33;;;;;;;;;;;;;;;;;;5094027;28;19916;-54
2023/02/10 05:33:59;;;;;;;;;;;;;;;;;;5094074;28;19931;-56
2023/02/10 05:36:24;;;;;;;;;;;;;;;;;;5093007;28;20372;-58
2023/02/10 05:41:35;;;;;;;;;;;;;;;;;;5093873;28;19919;-55
2023/02/10 05:44:01;;;;;;;;;;;;;;;;;;5093902;28;19909;-58
2023/02/10 05:46:27;;;;;;;;;;;;;;;;;;5093712;28;19914;-58
2023/02/10 05:48:53;;;;;;;;;;;;;;;;;;5093931;28;20303;-58
2023/02/10 05:51:19;;;;;;;;;;;;;;;;;;5093644;28;20376;-54
2023/02/10 05:53:45;;;;;;;;;;;;;;;;;;5093688;28;19908;-55
2023/02/10 05:56:10;;;;;;;;;;;;;;;;;;5093534;28;19917;-57
2023/02/10 05:58:36;;;;;;;;;;;;;;;;;;5093611;28;19908;-57
2023/02/10 06:01:02;;;;;;;;;;;;;;;;;;5075043;28;19920;-58
2023/02/10 06:03:28;;;;;;;;;;;;;;;;;;5093522;28;19912;-54
2023/02/10 06:05:54;;;;;;;;;;;;;;;;;;5093317;28;19908;-58
2023/02/10 06:08:20;;;;;;;;;;;;;;;;;;5093301;28;19916;-58
2023/02/10 06:10:46;;;;;;;;;;;;;;;;;;5093380;28;19908;-54
2023/02/10 06:13:12;;;;;;;;;;;;;;;;;;5093630;28;20000;-54
2023/02/10 06:15:38;;;;;;;;;;;;;;;;;;5093108;28;19908;-57
2023/02/10 06:18:04;;;;;;;;;;;;;;;;;;5093294;28;19915;-54
2023/02/10 06:20:30;;;;;;;;;;;;;;;;;;5074798;28;20277;-56
2023/02/10 06:22:55;;;;;;;;;;;;;;;;;;5093188;28;19908;-54
2023/02/10 06:25:21;;;;;;;;;;;;;;;;;;5093033;28;20378;-54
2023/02/10 06:27:47;;;;;;;;;;;;;;;;;;5092954;28;19908;-55
2023/02/10 06:30:13;;;;;;;;;;;;;;;;;;5092937;28;20010;-55
2023/02/10 06:32:39;;;;;;;;;;;;;;;;;;5092993;28;19943;-57
2023/02/10 06:35:05;;;;;;;;;;;;;;;;;;5074556;28;19946;-55
2023/02/10 06:37:31;;;;;;;;;;;;;;;;;;5092979;28;19908;-57
2023/02/10 06:39:57;;;;;;;;;;;;;;;;;;5093129;28;19908;-57
2023/02/10 06:42:23;;;;;;;;;;;;;;;;;;5092782;28;19912;-57
2023/02/10 06:44:49;;;;;;;;;;;;;;;;;;5092715;28;20337;-54
2023/02/10 06:47:15;;;;;;;;;;;;;;;;;;5092791;28;20002;-53
2023/02/10 06:49:40;;;;;;;;;;;;;;;;;;5092390;28;20010;-56
2023/02/10 06:52:06;;;;;;;;;;;;;;;;;;5093150;28;19998;-54
2023/02/10 06:54:32;;;;;;;;;;;;;;;;;;5092475;28;19947;-56
2023/02/10 06:56:58;;;;;;;;;;;;;;;;;;5092589;28;19909;-57
2023/02/10 06:59:24;;;;;;;;;;;;;;;;;;5092589;28;20020;-56
2023/02/10 07:01:50;;;;;;;;;;;;;;;;;;5092758;28;19973;-54
2023/02/10 07:04:16;;;;;;;;;;;;;;;;;;5092501;28;20409;-55
2023/02/10 07:06:42;;;;;;;;;;;;;;;;;;5092215;28;19977;-54
2023/02/10 07:09:08;;;;;;;;;;;;;;;;;;5092479;28;19937;-53
2023/02/10 07:11:34;;;;;;;;;;;;;;;;;;5074423;28;19908;-55
2023/02/10 07:14:00;;;;;;;;;;;;;;;;;;5074219;28;19911;-54
2023/02/10 07:16:27;;;;;;;;;;;;;;;;;;5092305;28;19977;-54
2023/02/10 07:18:53;;;;;;;;;;;;;;;;;;5092227;28;20284;-55
2023/02/10 07:21:19;;;;;;;;;;;;;;;;;;5092113;28;19919;-55
2023/02/10 07:23:45;;;;;;;;;;;;;;;;;;5092264;28;19908;-55
2023/02/10 07:26:11;;;;;;;;;;;;;;;;;;5092374;28;19943;-54
2023/02/10 07:28:37;;;;;;;;;;;;;;;;;;5074101;28;20520;-54
2023/02/10 07:31:03;;;;;;;;;;;;;;;;;;5092165;28;19987;-53
2023/02/10 07:33:29;;;;;;;;;;;;;;;;;;5092102;28;19961;-54
2023/02/10 07:35:55;;;;;;;;;;;;;;;;;;5092100;28;20418;-56
2023/02/10 07:38:21;;;;;;;;;;;;;;;;;;5092179;28;19975;-57
2023/02/10 07:40:47;;;;;;;;;;;;;;;;;;5091989;28;20364;-55
2023/02/10 07:43:13;;;;;;;;;;;;;;;;;;5094989;28;19957;-52
2023/02/10 07:45:39;;;;;;;;;;;;;;;;;;5096003;28;19943;-53
2023/02/10 07:48:05;;;;;;;;;;;;;;;;;;5092031;28;19914;-54
2023/02/10 07:50:31;;;;;;;;;;;;;;;;;;5092023;28;20375;-56
2023/02/10 07:52:57;;;;;;;;;;;;;;;;;;5092154;28;19961;-54
2023/02/10 07:55:23;;;;;;;;;;;;;;;;;;5091880;28;20008;-57
2023/02/10 07:57:48;;;;;;;;;;;;;;;;;;5092022;28;19912;-56
2023/02/10 08:00:14;;;;;;;;;;;;;;;;;;5091090;22;19923;-56
2023/02/10 08:02:40;;;;;;;;;;;;;;;;;;5135534;27;19934;-52
2023/02/10 08:05:06;;;;;;;;;;;;;;;;;;5136283;27;20410;-55
2023/02/10 08:07:32;;;;;;;;;;;;;;;;;;5136924;27;20010;-52
2023/02/10 08:09:58;;;;;;;;;;;;;;;;;;5136897;27;19915;-52
2023/02/10 08:12:24;;;;;;;;;;;;;;;;;;5116479;27;19915;-52
2023/02/10 08:14:50;;;;;;;;;;;;;;;;;;5116113;28;19915;-52
2023/02/10 08:17:16;;;;;;;;;;;;;;;;;;5926451;22;19934;-57
2023/02/10 08:19:42;;;;;;;;;;;;;;;;;;5115854;28;19908;-54
2023/02/10 08:22:08;;;;;;;;;;;;;;;;;;5115969;28;19912;-53
2023/02/10 08:24:34;;;;;;;;;;;;;;;;;;5115759;28;20256;-54
2023/02/10 08:27:00;;;;;;;;;;;;;;;;;;5113548;28;19915;-53
2023/02/10 08:29:26;;;;;;;;;;;;;;;;;;5095536;28;19912;-52
2023/02/10 08:31:52;;;;;;;;;;;;;;;;;;5077866;28;19908;-52
2023/02/10 08:34:17;;;;;;;;;;;;;;;;;;5095377;28;19908;-53
2023/02/10 08:36:43;;;;;;;;;;;;;;;;;;5095045;28;19935;-56
2023/02/10 08:39:09;;;;;;;;;;;;;;;;;;5095332;28;20356;-55
2023/02/10 08:41:35;;;;;;;;;;;;;;;;;;5095294;28;20491;-56
2023/02/10 08:44:01;;;;;;;;;;;;;;;;;;5095048;28;19947;-57
2023/02/10 08:46:27;;;;;;;;;;;;;;;;;;5094673;28;19947;-56
2023/02/10 08:48:53;;;;;;;;;;;;;;;;;;5102426;28;19963;-55
2023/02/10 08:51:19;;;;;;;;;;;;;;;;;;5115635;28;19951;-53
2023/02/10 08:53:45;;;;;;;;;;;;;;;;;;5115520;28;19995;-53
2023/02/10 08:56:11;;;;;;;;;;;;;;;;;;5115236;28;19994;-53
2023/02/10 08:58:37;;;;;;;;;;;;;;;;;;5115232;28;20287;-54
2023/02/10 09:01:03;;;;;;;;;;;;;;;;;;5115213;28;19954;-55
2023/02/10 09:03:29;;;;;;;;;;;;;;;;;;5115237;28;20398;-52
2023/02/10 09:05:54;;;;;;;;;;;;;;;;;;5114607;28;19955;-53
2023/02/10 09:08:21;;;;;;;;;;;;;;;;;;5115005;28;19947;-52
2023/02/10 09:10:47;;;;;;;;;;;;;;;;;;5114945;28;19908;-53
2023/02/10 09:13:13;;;;;;;;;;;;;;;;;;5115051;28;19968;-52
2023/02/10 09:15:39;;;;;;;;;;;;;;;;;;5114952;28;19907;-53
2023/02/10 09:18:05;;;;;;;;;;;;;;;;;;5114881;28;19916;-57
2023/02/10 09:20:31;;;;;;;;;;;;;;;;;;5115035;28;19908;-54
2023/02/10 09:22:57;;;;;;;;;;;;;;;;;;5114887;28;19908;-54
2023/02/10 09:25:23;;;;;;;;;;;;;;;;;;5096385;28;19915;-53
2023/02/10 09:27:49;;;;;;;;;;;;;;;;;;5114680;28;19969;-54
2023/02/10 09:30:15;;;;;;;;;;;;;;;;;;5114670;28;19908;-52
2023/02/10 09:32:40;;;;;;;;;;;;;;;;;;5114645;28;19930;-62
2023/02/10 09:35:06;;;;;;;;;;;;;;;;;;5114535;28;19948;-62
2023/02/10 09:37:32;;;;;;;;;;;;;;;;;;5114501;28;19954;-62
2023/02/10 09:39:58;;;;;;;;;;;;;;;;;;5114540;28;19930;-62
2023/02/10 09:42:25;;;;;;;;;;;;;;;;;;5093694;28;20387;-62
2023/02/10 09:44:51;;;;;;;;;;;;;;;;;;5101668;28;19912;-61
2023/02/10 09:47:38;;;;;;;;;;;1.30;93.70;;;;;;5075657;28;19961;-62
2023/02/10 09:50:10;;;;;;;;;;;1.80;78.90;;;;;;5078544;28;19957;-61
2023/02/10 09:52:55;;;;;;;;;;;1.90;78.30;;;;;;5093770;28;19920;-61
2023/02/10 09:55:20;;;;;;;;;;;1.90;80.10;;;;;;5113963;28;19915;-61
2023/02/10 09:57:46;;;;;;;;;;;;;;;;;;5095038;28;19911;-61
2023/02/10 10:00:12;;;;;;;;;;;;;;;;;;5093554;28;19951;-62
2023/02/10 10:02:38;;;;;;;;;;;;;;;;;;5113182;28;19911;-61
2023/02/10 10:05:04;;;;;;;;;;;;;;;;;;5113013;28;19908;-62
2023/02/10 10:07:31;;;;;;;;;;;;;;;;;;5113733;28;20326;-62
2023/02/10 10:09:57;;;;;;;;;;;;;;;;;;5113763;28;19908;-62
2023/02/10 10:12:23;;;;;;;;;;;;;;;;;;5113890;28;19915;-62
2023/02/10 10:14:50;;;;;;;;;;;;;;;;;;5113627;28;19953;-62
2023/02/10 10:17:16;;;;;;;;;;;;;;;;;;5113623;28;19959;-62
2023/02/10 10:19:43;;;;;;;;;;;;;;;;;;5113904;28;20433;-62
2023/02/10 10:22:09;;;;;;;;;;;;;;;;;;5113347;28;19915;-62
2023/02/10 10:24:34;;;;;;;;;;;;;;;;;;5112918;28;19915;-62
2023/02/10 10:27:00;;;;;;;;;;;;;;;;;;5113423;28;19908;-62
2023/02/10 10:29:26;;;;;;;;;;;;;;;;;;5113500;28;19954;-62
2023/02/10 10:31:52;;;;;;;;;;;;;;;;;;5113552;28;19993;-62
2023/02/10 10:34:18;;;;;;;;;;;;;;;;;;5113258;28;19939;-62
2023/02/10 10:36:44;;;;;;;;;;;;;;;;;;5095082;28;20256;-61
2023/02/10 10:39:10;;;;;;;;;;;;;;;;;;5113243;28;20341;-61
2023/02/10 10:41:36;;;;;;;;;;;;;;;;;;5113431;28;20383;-61
2023/02/10 10:44:02;;;;;;;;;;;;;;;;;;5094982;28;20363;-61
2023/02/10 10:46:28;;;;;;;;;;;;;;;;;;5113054;28;19915;-62
2023/02/10 10:48:54;;;;;;;;;;;;;;;;;;5113143;28;19908;-62
2023/02/10 10:51:20;;;;;;;;;;;;;;;;;;5094762;28;19907;-62
2023/02/10 10:53:46;;;;;;;;;;;;;;;;;;5113045;28;19912;-62
2023/02/10 10:56:12;;;;;;;;;;;;;;;;;;5112901;28;20367;-62
2023/02/10 10:58:38;;;;;;;;;;;;;;;;;;5112894;28;19908;-62
2023/02/10 11:01:05;;;;;;;;;;;;;;;;;;5112873;28;20059;-62
2023/02/10 11:03:31;;;;;;;;;;;;;;;;;;5094965;28;19935;-62
2023/02/10 11:05:57;;;;;;;;;;;;;;;;;;5092243;28;20376;-63
2023/02/10 11:08:23;;;;;;;;;;;;;;;;;;5092215;28;19996;-60
2023/02/10 11:10:49;;;;;;;;;;;;;;;;;;5096142;28;20346;-61
2023/02/10 11:13:15;;;;;;;;;;;;;;;;;;5099164;28;19943;-62
2023/02/10 11:15:41;;;;;;;;;;;;;;;;;;5092260;28;20008;-62
2023/02/10 11:18:13;;;;;;;;;;;4.70;63.20;;;;;;5091962;28;19916;-62
2023/02/10 11:20:39;;;;;;;;;;;4.70;64.40;;;;;;5092205;28;19954;-63
2023/02/10 11:23:15;;;;;;;;;;;4.70;63.80;;;;;;5092293;28;19912;-62
2023/02/10 11:25:41;;;;;;;;;;;;;;;;;;5092036;28;20445;-61
2023/02/10 11:28:15;;;;;;;;;;;4.80;64.30;;;;;;5075863;28;19908;-62
2023/02/10 11:30:41;;;;;;;;;;;;;;;;;;5094142;28;20014;-62
2023/02/10 11:33:07;;;;;;;;;;;;;;;;;;5112672;28;20353;-62
2023/02/10 11:35:33;;;;;;;;;;;;;;;;;;5088767;28;19919;-62
2023/02/10 11:37:59;;;;;;;;;;;;;;;;;;5095501;28;19915;-63
2023/02/10 11:40:25;;;;;;;;;;;;;;;;;;5063215;28;19909;-60
2023/02/10 11:42:51;;;;;;;;;;;;;;;;;;5091481;28;19915;-63
2023/02/10 11:45:17;;;;;;;;;;;;;;;;;;5088247;28;20284;-63
2023/02/10 11:47:43;;;;;;;;;;;;;;;;;;5077872;28;20403;-62
2023/02/10 11:50:09;;;;;;;;;;;;;;;;;;5095917;28;20011;-63
2023/02/10 11:52:35;;;;;;;;;;;;;;;;;;5096422;28;20317;-62
2023/02/10 11:55:01;;;;;;;;;;;;;;;;;;5096004;28;19908;-63
2023/02/10 12:00:12;;;;;;;;;;;;;;;;;;5113741;28;19964;-64
2023/02/10 12:02:38;;;;;;;;;;;;;;;;;;5077792;28;20295;-61
2023/02/10 12:05:03;;;;;;;;;;;;;;;;;;5094272;28;19912;-63
2023/02/10 12:07:29;;;;;;;;;;;;;;;;;;5094262;28;19913;-63
2023/02/10 12:09:55;;;;;;;;;;;;;;;;;;5096157;28;19923;-62
2023/02/10 12:12:21;;;;;;;;;;;;;;;;;;5095967;28;20360;-63
2023/02/10 12:14:47;;;;;;;;;;;;;;;;;;5107645;28;19919;-62
2023/02/10 12:17:13;;;;;;;;;;;;;;;;;;5095169;28;19916;-64
2023/02/10 12:19:39;;;;;;;;;;;;;;;;;;5077347;28;19916;-61
2023/02/10 12:22:07;;;;;;;;;;;;;;;;;;5094897;28;19916;-63
2023/02/10 12:24:33;;;;;;;;;;;;;;;;;;5094076;28;19969;-64
2023/02/10 12:26:59;;;;;;;;;;;;;;;;;;5106657;28;19912;-63
2023/02/10 12:29:25;;;;;;;;;;;;;;;;;;5097427;28;20326;-63
2023/02/10 12:31:51;;;;;;;;;;;;;;;;;;5095326;28;19919;-64
2023/02/10 12:34:17;;;;;;;;;;;;;;;;;;5115501;28;19912;-62
2023/02/10 12:36:57;;;;;;;;;;;6.00;58.40;;;;;;5115718;28;19914;-64
2023/02/10 12:39:23;;;;;;;;;;;;;;;;;;5115653;28;19908;-63
2023/02/10 12:41:49;;;;;;;;;;;;;;;;;;5080486;28;19912;-61
2023/02/10 12:44:15;;;;;;;;;;;;;;;;;;5094938;28;20384;-63
2023/02/10 12:46:41;;;;;;;;;;;;;;;;;;5107453;28;19919;-62
2023/02/10 12:49:06;;;;;;;;;;;;;;;;;;5114913;28;19920;-63
2023/02/10 12:51:33;;;;;;;;;;;;;;;;;;5115241;28;20458;-62
2023/02/10 12:53:58;;;;;;;;;;;;;;;;;;5115443;28;19998;-61
2023/02/10 12:56:24;;;;;;;;;;;;;;;;;;5098335;28;19951;-60
2023/02/10 12:58:50;;;;;;;;;;;;;;;;;;5094332;28;19916;-63
2023/02/10 13:01:18;;;;;;;;;;;;;;;;;;5101983;28;20296;-62
2023/02/10 13:03:44;;;;;;;;;;;;;;;;;;5113679;28;19908;-54
2023/02/10 13:06:10;;;;;;;;;;;;;;;;;;5114667;28;19920;-53
2023/02/10 13:08:36;;;;;;;;;;;;;;;;;;5098383;28;19938;-51
2023/02/10 13:11:02;;;;;;;;;;;;;;;;;;5107865;28;20443;-50
2023/02/10 13:13:28;;;;;;;;;;;;;;;;;;5094331;28;20291;-51
2023/02/10 13:15:54;;;;;;;;;;;;;;;;;;5094566;28;19912;-52
2023/02/10 13:18:20;;;;;;;;;;;;;;;;;;5094236;28;19923;-53
2023/02/10 13:20:46;;;;;;;;;;;;;;;;;;5106434;28;19912;-54
2023/02/10 13:23:11;;;;;;;;;;;;;;;;;;5102745;28;19952;-52
2023/02/10 13:25:37;;;;;;;;;;;;;;;;;;5094072;28;19962;-51
2023/02/10 13:28:03;;;;;;;;;;;;;;;;;;5096156;28;19919;-51
2023/02/10 13:30:29;;;;;;;;;;;;;;;;;;5090255;28;19911;-52
2023/02/10 13:32:55;;;;;;;;;;;;;;;;;;5113841;28;20006;-51
2023/02/10 13:35:21;;;;;;;;;;;;;;;;;;5093698;28;19954;-51
2023/02/10 13:37:47;;;;;;;;;;;;;;;;;;5093360;28;20008;-51
2023/02/10 13:40:13;;;;;;;;;;;;;;;;;;5104131;28;19920;-53
2023/02/10 13:42:39;;;;;;;;;;;;;;;;;;5099090;28;19918;-53
2023/02/10 13:45:05;;;;;;;;;;;;;;;;;;5093778;28;19962;-52
2023/02/10 13:47:31;;;;;;;;;;;;;;;;;;5093939;28;19938;-52
2023/02/10 13:49:57;;;;;;;;;;;;;;;;;;5108774;28;19911;-52
2023/02/10 13:52:23;;;;;;;;;;;;;;;;;;5095948;28;19958;-52
2023/02/10 13:54:49;;;;;;;;;;;;;;;;;;5100115;28;19912;-51
2023/02/10 13:57:15;;;;;;;;;;;;;;;;;;5075039;28;20356;-52
2023/02/10 13:59:41;;;;;;;;;;;;;;;;;;5092939;28;20007;-54
2023/02/10 14:02:07;;;;;;;;;;;;;;;;;;5093570;28;20276;-51
2023/02/10 14:04:33;;;;;;;;;;;;;;;;;;5093612;28;19912;-52
2023/02/10 14:06:59;;;;;;;;;;;;;;;;;;5093598;28;19912;-52
2023/02/10 14:09:28;;;;;;;;;;;;;;;;;;5092946;28;20315;-51
2023/02/10 14:11:54;;;;;;;;;;;;;;;;;;5093453;28;19916;-51
2023/02/10 14:14:20;;;;;;;;;;;;;;;;;;5093539;28;20002;-51
2023/02/10 14:16:46;;;;;;;;;;;;;;;;;;5093250;28;20004;-52
2023/02/10 14:19:12;;;;;;;;;;;;;;;;;;5093331;28;20467;-53
2023/02/10 14:21:38;;;;;;;;;;;;;;;;;;5093175;28;19913;-53
2023/02/10 14:24:04;;;;;;;;;;;;;;;;;;5074764;28;19918;-53
2023/02/10 14:26:30;;;;;;;;;;;;;;;;;;5093125;28;19944;-52
2023/02/10 14:28:56;;;;;;;;;;;;;;;;;;5095628;28;20367;-52
2023/02/10 14:31:22;;;;;;;;;;;;;;;;;;5094953;28;19995;-52
2023/02/10 14:33:48;;;;;;;;;;;;;;;;;;5100759;28;19958;-52
2023/02/10 14:36:13;;;;;;;;;;;;;;;;;;5094988;28;20322;-52
2023/02/10 14:38:40;;;;;;;;;;;;;;;;;;5101963;28;19912;-54
2023/02/10 14:41:06;;;;;;;;;;;;;;;;;;5092654;28;19916;-54
2023/02/10 14:43:32;;;;;;;;;;;;;;;;;;5095997;28;19999;-52
2023/02/10 14:45:58;;;;;;;;;;;;;;;;;;5113112;28;19947;-49
2023/02/10 14:48:24;;;;;;;;;;;;;;;;;;5113130;28;20383;-50
2023/02/10 14:50:50;;;;;;;;;;;;;;;;;;5113219;28;19946;-49
2023/02/10 14:53:16;;;;;;;;;;;;;;;;;;5113119;28;20041;-49
2023/02/10 14:55:43;;;;;;;;;;;;;;;;;;5108798;28;20724;-50
2023/02/10 14:58:09;;;;;;;;;;;;;;;;;;5092587;28;19909;-49
2023/02/10 15:00:35;;;;;;;;;;;;;;;;;;5091826;28;19930;-51
2023/02/10 15:03:01;;;;;;;;;;;;;;;;;;5091732;28;19911;-51
2023/02/10 15:05:27;;;;;;;;;;;;;;;;;;5092901;28;20470;-53
2023/02/10 15:07:53;;;;;;;;;;;;;;;;;;5074035;28;19912;-50
2023/02/10 15:10:19;;;;;;;;;;;;;;;;;;5092215;28;19912;-49
2023/02/10 15:12:45;;;;;;;;;;;;;;;;;;5092443;28;19912;-49
2023/02/10 15:15:11;;;;;;;;;;;;;;;;;;5091919;28;19973;-51
2023/02/10 15:17:37;;;;;;;;;;;;;;;;;;5073420;28;20318;-50
2023/02/10 15:20:03;;;;;;;;;;;;;;;;;;5102243;28;20287;-49
2023/02/10 15:22:29;;;;;;;;;;;;;;;;;;5106636;28;20364;-51
2023/02/10 15:24:55;;;;;;;;;;;;;;;;;;5112778;28;19916;-50
2023/02/10 15:27:21;;;;;;;;;;;;;;;;;;5112578;28;20018;-50
2023/02/10 15:29:47;;;;;;;;;;;;;;;;;;5112635;28;19912;-49
2023/02/10 15:32:13;;;;;;;;;;;;;;;;;;5112594;28;19904;-50
2023/02/10 15:34:38;;;;;;;;;;;;;;;;;;5112438;28;20013;-48
2023/02/10 15:37:04;;;;;;;;;;;;;;;;;;5108008;28;19911;-50
2023/02/10 15:39:30;;;;;;;;;;;;;;;;;;5112595;28;19968;-50
2023/02/10 15:41:56;;;;;;;;;;;;;;;;;;5112429;28;20627;-52
2023/02/10 15:44:22;;;;;;;;;;;;;;;;;;5112233;28;19908;-47
2023/02/10 15:46:48;;;;;;;;;;;;;;;;;;5112409;28;19914;-51
2023/02/10 15:49:14;;;;;;;;;;;;;;;;;;5112589;28;19916;-50
2023/02/10 15:51:40;;;;;;;;;;;;;;;;;;5094139;28;20439;-50
2023/02/10 15:54:06;;;;;;;;;;;;;;;;;;5112493;28;19994;-54
2023/02/10 15:56:32;;;;;;;;;;;;;;;;;;5112288;28;19914;-53
2023/02/10 15:58:58;;;;;;;;;;;;;;;;;;5112403;28;19908;-52
2023/02/10 16:01:24;;;;;;;;;;;8.70;52.50;;;;;;5112255;28;19911;-52
2023/02/10 16:03:49;;;;;;;;;;;9.70;43.60;;;;;;5112340;28;19907;-49
2023/02/10 16:06:16;;;;;;;;;;;9.40;45.80;;;;;;5112093;28;19912;-53
2023/02/10 16:08:42;;;;;;;;;;;9.20;46.10;;;;;;5112223;28;19915;-51
2023/02/10 16:11:08;;;;;;;;;;;;;;;;;;5112251;28;19912;-51
2023/02/10 16:13:33;;;;;;;;;;;;;;;;;;5112321;28;19908;-53
2023/02/10 16:15:59;;;;;;;;;;;;;;;;;;5112043;28;19949;-53
2023/02/10 16:18:25;;;;;;;;;;;;;;;;;;5112026;28;19916;-53
2023/02/10 16:20:51;;;;;;;;;;;;;;;;;;5094279;28;19908;-52
2023/02/10 16:23:18;;;;;;;;;;;;;;;;;;5116081;28;19931;-53
2023/02/10 16:25:44;;;;;;;;;;;;;;;;;;5112558;28;20350;-52
2023/02/10 16:28:10;;;;;;;;;;;;;;;;;;5115949;28;19958;-52
2023/02/10 16:30:36;;;;;;;;;;;;;;;;;;5115132;28;19916;-51
2023/02/10 16:33:02;;;;;;;;;;;;;;;;;;5109834;28;19912;-53
2023/02/10 16:35:28;;;;;;;;;;;;;;;;;;5103902;28;19915;-52
2023/02/10 16:37:54;;;;;;;;;;;;;;;;;;5097380;28;20280;-52